createdAt,value
2018-12-16T00:01:36.554Z,33.77
2018-12-16T00:04:05.507Z,38.97
2018-12-16T00:06:33.981Z,42.30
2018-12-16T00:09:02.830Z,36.60
2018-12-16T00:11:31.230Z,45.10
2018-12-16T00:13:59.752Z,38.80
2018-12-16T00:16:28.241Z,40.97
2018-12-16T00:18:56.781Z,38.43
2018-12-16T00:21:25.429Z,39.07
2018-12-16T00:23:53.938Z,42.77
2018-12-16T00:26:22.878Z,35.80
2018-12-16T00:28:53.310Z,39.47
2018-12-16T00:31:22.083Z,37.47
2018-12-16T00:33:51.717Z,40.67
2018-12-16T00:36:20.991Z,40.20
2018-12-16T00:38:49.482Z,37.60
2018-12-16T00:41:18.062Z,38.87
2018-12-16T00:43:47.185Z,38.07
2018-12-16T00:46:15.764Z,42.07
2018-12-16T00:48:44.569Z,36.73
2018-12-16T00:51:13.402Z,38.60
2018-12-16T00:53:41.990Z,38.80
2018-12-16T00:56:11.045Z,39.63
2018-12-16T00:58:39.417Z,40.83
2018-12-16T01:01:07.906Z,38.43
2018-12-16T01:03:36.401Z,39.60
2018-12-16T01:06:04.899Z,39.50
2018-12-16T01:08:33.344Z,38.30
2018-12-16T01:11:01.762Z,41.73
2018-12-16T01:13:30.136Z,41.10
2018-12-16T01:15:58.494Z,38.70
2018-12-16T01:18:27.316Z,39.97
2018-12-16T01:20:55.958Z,38.53
2018-12-16T01:23:24.369Z,41.20
2018-12-16T01:25:53.014Z,40.83
2018-12-16T01:28:21.583Z,41.20
2018-12-16T01:30:50.100Z,36.50
2018-12-16T01:33:18.658Z,40.63
2018-12-16T01:35:47.403Z,33.50
2018-12-16T01:38:15.859Z,42.20
2018-12-16T01:40:44.459Z,43.00
2018-12-16T01:43:13.424Z,38.93
2018-12-16T01:45:41.945Z,40.60
2018-12-16T01:48:10.606Z,38.43
2018-12-16T01:50:39.082Z,42.37
2018-12-16T01:53:07.854Z,38.10
2018-12-16T01:55:36.481Z,38.37
2018-12-16T01:58:05.405Z,40.03
2018-12-16T02:00:33.617Z,42.13
2018-12-16T02:03:02.158Z,37.80
2018-12-16T02:05:30.469Z,38.37
2018-12-16T02:07:58.978Z,41.73
2018-12-16T02:10:27.587Z,38.20
2018-12-16T02:12:56.536Z,38.33
2018-12-16T02:15:24.977Z,39.30
2018-12-16T02:17:53.614Z,38.70
2018-12-16T02:20:22.377Z,39.20
2018-12-16T02:22:56.657Z,35.47
2018-12-16T02:25:21.289Z,42.93
2018-12-16T02:27:49.838Z,39.30
2018-12-16T02:30:23.551Z,39.10
2018-12-16T02:32:51.947Z,37.17
2018-12-16T02:35:20.312Z,40.30
2018-12-16T02:37:49.278Z,39.33
2018-12-16T02:40:17.839Z,37.50
2018-12-16T02:42:46.223Z,39.47
2018-12-16T02:45:14.790Z,36.00
2018-12-16T02:47:46.945Z,37.93
2018-12-16T02:50:15.252Z,39.37
2018-12-16T02:52:43.737Z,39.97
2018-12-16T02:55:12.280Z,39.50
2018-12-16T02:57:40.611Z,37.20
2018-12-16T03:00:09.296Z,37.60
2018-12-16T03:02:38.109Z,40.87
2018-12-16T03:05:06.755Z,42.40
2018-12-16T03:07:35.171Z,36.80
2018-12-16T03:10:04.238Z,40.03
2018-12-16T03:12:32.662Z,39.80
2018-12-16T03:15:01.332Z,41.87
2018-12-16T03:17:31.032Z,39.07
2018-12-16T03:19:59.413Z,39.50
2018-12-16T03:22:28.142Z,43.53
2018-12-16T03:24:56.763Z,38.97
2018-12-16T03:27:25.199Z,41.40
2018-12-16T03:29:53.727Z,41.77
2018-12-16T03:32:22.400Z,41.47
2018-12-16T03:34:50.912Z,40.90
2018-12-16T03:37:19.220Z,42.00
2018-12-16T03:39:47.874Z,46.80
2018-12-16T03:44:43.821Z,41.43
2018-12-16T03:47:12.669Z,42.10
2018-12-16T03:49:41.015Z,43.90
2018-12-16T03:52:09.458Z,41.00
2018-12-16T03:54:37.942Z,38.27
2018-12-16T03:57:06.639Z,39.77
2018-12-16T03:59:35.016Z,40.00
2018-12-16T04:02:03.606Z,41.87
2018-12-16T04:04:32.089Z,41.07
2018-12-16T04:07:00.379Z,36.77
2018-12-16T04:09:28.772Z,37.37
2018-12-16T04:11:57.246Z,43.07
2018-12-16T04:14:25.552Z,44.40
2018-12-16T04:16:54.193Z,42.07
2018-12-16T04:19:22.785Z,41.30
2018-12-16T04:21:51.158Z,41.37
2018-12-16T04:24:19.554Z,42.47
2018-12-16T04:26:47.979Z,40.60
2018-12-16T04:29:16.314Z,35.53
2018-12-16T04:31:44.955Z,43.70
2018-12-16T04:34:13.472Z,47.93
2018-12-16T04:36:41.320Z,48.57
2018-12-16T04:39:10.193Z,43.77
2018-12-16T04:41:38.879Z,43.60
2018-12-16T04:44:07.373Z,43.70
2018-12-16T04:46:35.891Z,43.87
2018-12-16T04:49:04.663Z,48.37
2018-12-16T04:51:33.090Z,49.03
2018-12-16T04:54:01.507Z,51.30
2018-12-16T04:56:30.122Z,47.07
2018-12-16T04:58:58.727Z,47.63
2018-12-16T05:01:27.354Z,49.17
2018-12-16T05:03:55.958Z,50.50
2018-12-16T05:06:24.617Z,53.30
2018-12-16T05:08:53.334Z,46.13
2018-12-16T05:11:21.941Z,50.77
2018-12-16T05:13:50.309Z,50.33
2018-12-16T05:16:18.932Z,48.60
2018-12-16T05:18:47.020Z,51.17
2018-12-16T05:21:15.534Z,55.63
2018-12-16T05:23:44.181Z,48.30
2018-12-16T05:26:12.558Z,50.87
2018-12-16T05:28:40.977Z,53.80
2018-12-16T05:31:09.949Z,50.47
2018-12-16T05:33:38.251Z,56.27
2018-12-16T05:36:06.646Z,54.77
2018-12-16T05:38:35.090Z,50.57
2018-12-16T05:41:03.518Z,54.30
2018-12-16T05:43:31.977Z,57.10
2018-12-16T05:46:00.506Z,58.93
2018-12-16T05:48:29.113Z,54.90
2018-12-16T05:50:57.554Z,56.47
2018-12-16T05:53:26.004Z,56.47
2018-12-16T05:55:54.479Z,59.60
2018-12-16T05:58:22.925Z,60.93
2018-12-16T06:00:51.478Z,56.60
2018-12-16T06:03:19.905Z,58.60
2018-12-16T06:05:48.410Z,61.67
2018-12-16T06:08:16.905Z,54.83
2018-12-16T06:10:53.962Z,60.17
2018-12-16T06:13:22.331Z,61.47
2018-12-16T06:15:50.749Z,62.77
2018-12-16T06:18:19.277Z,66.53
2018-12-16T06:20:48.114Z,60.10
2018-12-16T06:23:16.599Z,57.27
2018-12-16T06:25:45.190Z,64.70
2018-12-16T06:28:13.644Z,65.10
2018-12-16T06:30:42.631Z,59.93
2018-12-16T06:33:10.769Z,61.27
2018-12-16T06:35:39.192Z,56.23
2018-12-16T06:38:07.762Z,54.90
2018-12-16T06:40:36.401Z,60.60
2018-12-16T06:43:05.076Z,62.40
2018-12-16T06:45:33.504Z,64.53
2018-12-16T06:48:01.916Z,61.47
2018-12-16T06:50:30.649Z,56.87
2018-12-16T06:52:59.190Z,62.57
2018-12-16T06:55:27.986Z,63.07
2018-12-16T06:57:56.873Z,60.80
2018-12-16T07:00:30.780Z,57.63
2018-12-16T07:02:59.570Z,62.90
2018-12-16T07:05:28.032Z,62.90
2018-12-16T07:07:56.876Z,62.53
2018-12-16T07:10:25.352Z,61.27
2018-12-16T07:12:53.872Z,62.87
2018-12-16T07:15:22.489Z,65.23
2018-12-16T07:17:51.072Z,63.70
2018-12-16T07:20:20.566Z,70.57
2018-12-16T07:22:49.044Z,69.87
2018-12-16T07:25:17.563Z,64.37
2018-12-16T07:27:46.325Z,72.57
2018-12-16T07:30:14.874Z,72.50
2018-12-16T07:32:43.778Z,69.53
2018-12-16T07:35:12.496Z,78.37
2018-12-16T07:37:40.978Z,69.30
2018-12-16T07:40:09.434Z,72.63
2018-12-16T07:42:37.979Z,80.13
2018-12-16T07:45:07.342Z,97.57
2018-12-16T07:47:35.847Z,87.33
2018-12-16T07:50:05.304Z,91.20
2018-12-16T07:52:33.606Z,103.47
2018-12-16T07:55:01.997Z,113.30
2018-12-16T07:57:30.738Z,84.73
2018-12-16T07:59:59.152Z,87.23
2018-12-16T08:02:28.001Z,95.83
2018-12-16T08:04:56.691Z,103.40
2018-12-16T08:07:25.154Z,130.17
2018-12-16T08:09:54.209Z,107.50
2018-12-16T08:12:23.189Z,101.33
2018-12-16T08:14:51.909Z,94.87
2018-12-16T08:17:20.373Z,118.70
2018-12-16T08:19:50.309Z,115.70
2018-12-16T08:22:18.918Z,148.40
2018-12-16T08:24:47.523Z,143.47
2018-12-16T08:27:16.153Z,104.47
2018-12-16T08:29:44.881Z,133.23
2018-12-16T08:32:13.203Z,115.23
2018-12-16T08:34:41.646Z,121.40
2018-12-16T08:37:10.247Z,121.60
2018-12-16T08:39:39.733Z,119.27
2018-12-16T08:42:08.220Z,124.60
2018-12-16T08:44:37.674Z,114.47
2018-12-16T08:47:06.146Z,99.10
2018-12-16T08:49:34.812Z,128.10
2018-12-16T08:52:03.473Z,97.67
2018-12-16T08:54:31.895Z,121.70
2018-12-16T08:57:00.351Z,97.90
2018-12-16T08:59:29.494Z,115.80
2018-12-16T09:01:58.127Z,96.70
2018-12-16T09:04:26.824Z,102.30
2018-12-16T09:06:55.366Z,117.30
2018-12-16T09:09:23.782Z,146.53
2018-12-16T09:11:52.097Z,141.80
2018-12-16T09:14:22.692Z,153.13
2018-12-16T09:16:51.022Z,133.73
2018-12-16T09:19:19.466Z,108.17
2018-12-16T09:21:47.942Z,122.57
2018-12-16T09:24:16.426Z,142.17
2018-12-16T09:26:45.100Z,116.17
2018-12-16T09:29:13.537Z,116.07
2018-12-16T09:31:42.133Z,142.53
2018-12-16T09:34:10.896Z,141.73
2018-12-16T09:36:39.630Z,150.10
2018-12-16T09:39:08.829Z,111.67
2018-12-16T09:41:37.774Z,166.00
2018-12-16T09:44:06.119Z,116.97
2018-12-16T09:46:34.615Z,136.73
2018-12-16T09:49:03.067Z,116.97
2018-12-16T09:51:31.472Z,126.03
2018-12-16T09:54:00.015Z,105.03
2018-12-16T09:56:28.672Z,124.63
2018-12-16T09:58:57.118Z,163.60
2018-12-16T10:01:25.591Z,161.13
2018-12-16T10:03:54.198Z,152.57
2018-12-16T10:06:22.600Z,139.43
2018-12-16T10:08:51.326Z,140.00
2018-12-16T10:11:19.901Z,144.60
2018-12-16T10:13:48.486Z,141.70
2018-12-16T10:16:16.796Z,156.03
2018-12-16T10:18:45.345Z,163.10
2018-12-16T10:21:14.168Z,211.13
2018-12-16T10:23:43.219Z,132.93
2018-12-16T10:26:12.872Z,157.00
2018-12-16T10:28:43.537Z,167.40
2018-12-16T10:31:12.141Z,119.77
2018-12-16T10:33:41.898Z,156.17
2018-12-16T10:36:10.909Z,90.93
2018-12-16T10:38:39.294Z,128.10
2018-12-16T10:41:07.715Z,168.40
2018-12-16T10:43:36.458Z,89.67
2018-12-16T10:46:04.967Z,110.60
2018-12-16T10:48:33.489Z,98.90
2018-12-16T10:51:01.826Z,126.97
2018-12-16T10:53:31.217Z,129.27
2018-12-16T10:55:59.617Z,111.93
2018-12-16T10:58:28.059Z,107.73
2018-12-16T11:01:01.996Z,146.90
2018-12-16T11:03:30.407Z,116.87
2018-12-16T11:05:58.728Z,105.33
2018-12-16T11:08:28.404Z,97.60
2018-12-16T11:10:57.095Z,147.53
2018-12-16T11:13:25.657Z,123.37
2018-12-16T11:15:54.047Z,125.93
2018-12-16T11:18:23.004Z,156.43
2018-12-16T11:20:51.514Z,117.37
2018-12-16T11:23:20.077Z,160.07
2018-12-16T11:25:51.592Z,116.87
2018-12-16T11:28:20.035Z,137.13
2018-12-16T11:30:48.483Z,121.20
2018-12-16T11:33:16.894Z,119.97
2018-12-16T11:35:45.537Z,133.90
2018-12-16T11:38:14.152Z,158.47
2018-12-16T11:40:42.776Z,122.07
2018-12-16T11:43:11.396Z,134.60
2018-12-16T11:45:39.825Z,109.83
2018-12-16T11:48:08.462Z,133.93
2018-12-16T11:50:37.094Z,161.00
2018-12-16T11:53:05.668Z,139.33
2018-12-16T11:55:34.426Z,167.50
2018-12-16T11:58:02.895Z,140.47
2018-12-16T12:00:31.307Z,139.47
2018-12-16T12:02:59.959Z,150.30
2018-12-16T12:05:28.540Z,104.23
2018-12-16T12:07:56.956Z,124.93
2018-12-16T12:10:25.303Z,120.97
2018-12-16T12:12:54.331Z,193.60
2018-12-16T12:15:22.773Z,125.73
2018-12-16T12:17:51.290Z,130.07
2018-12-16T12:20:19.678Z,139.50
2018-12-16T12:22:48.390Z,105.73
2018-12-16T12:25:20.063Z,98.40
2018-12-16T12:27:47.505Z,120.83
2018-12-16T12:30:16.128Z,137.93
2018-12-16T12:32:48.991Z,94.50
2018-12-16T12:35:15.947Z,108.60
2018-12-16T12:37:44.383Z,143.73
2018-12-16T12:40:12.835Z,131.27
2018-12-16T12:42:41.174Z,112.83
2018-12-16T12:45:10.380Z,107.50
2018-12-16T12:47:39.159Z,118.80
2018-12-16T12:50:08.334Z,358.57
2018-12-16T12:52:36.791Z,120.83
2018-12-16T12:55:06.802Z,134.53
2018-12-16T12:57:35.446Z,182.80
2018-12-16T13:00:04.940Z,110.47
2018-12-16T13:02:33.375Z,118.70
2018-12-16T13:05:01.740Z,124.73
2018-12-16T13:07:30.653Z,108.97
2018-12-16T13:09:59.088Z,86.17
2018-12-16T13:12:27.537Z,94.47
2018-12-16T13:14:56.149Z,102.03
2018-12-16T13:17:24.540Z,106.53
2018-12-16T13:19:52.932Z,97.40
2018-12-16T13:22:21.348Z,94.40
2018-12-16T13:25:00.936Z,117.80
2018-12-16T13:27:29.439Z,93.20
2018-12-16T13:29:57.961Z,104.87
2018-12-16T13:32:26.471Z,101.00
2018-12-16T13:34:55.217Z,109.97
2018-12-16T13:37:23.770Z,113.30
2018-12-16T13:39:52.207Z,106.30
2018-12-16T13:42:20.786Z,104.27
2018-12-16T13:44:49.162Z,111.73
2018-12-16T13:47:18.545Z,99.27
2018-12-16T13:49:47.230Z,91.87
2018-12-16T13:52:15.789Z,99.00
2018-12-16T13:54:47.945Z,116.03
2018-12-16T13:57:16.456Z,91.40
2018-12-16T13:59:44.825Z,105.97
2018-12-16T14:02:13.342Z,97.13
2018-12-16T14:04:42.121Z,83.17
2018-12-16T14:20:44.386Z,103.33
2018-12-16T14:23:14.609Z,84.00
2018-12-16T14:25:47.988Z,79.30
2018-12-16T14:31:09.089Z,83.93
2018-12-16T14:33:37.395Z,77.50
2018-12-16T14:36:05.865Z,77.43
2018-12-16T14:38:35.381Z,86.97
2018-12-16T14:41:03.890Z,79.13
2018-12-16T14:43:32.290Z,80.60
2018-12-16T14:46:00.633Z,92.00
2018-12-16T14:48:29.163Z,85.43
2018-12-16T14:50:57.717Z,77.63
2018-12-16T14:53:26.075Z,79.77
2018-12-16T14:55:55.602Z,80.43
2018-12-16T14:58:24.250Z,84.30
2018-12-16T15:01:10.440Z,96.30
2018-12-16T15:03:38.825Z,83.57
2018-12-16T15:06:08.138Z,84.87
2018-12-16T15:08:36.776Z,101.83
2018-12-16T15:11:06.173Z,110.90
2018-12-16T15:13:35.120Z,103.63
2018-12-16T15:16:03.540Z,88.57
2018-12-16T15:18:32.043Z,111.40
2018-12-16T15:21:00.509Z,78.20
2018-12-16T15:23:29.074Z,96.20
2018-12-16T15:26:02.023Z,88.47
2018-12-16T15:28:28.747Z,70.20
2018-12-16T15:30:57.247Z,85.00
2018-12-16T15:33:25.707Z,70.97
2018-12-16T15:35:54.161Z,80.10
2018-12-16T15:38:25.383Z,106.67
2018-12-16T15:40:54.002Z,88.23
2018-12-16T15:43:22.694Z,118.83
2018-12-16T15:45:51.453Z,94.60
2018-12-16T15:48:22.056Z,109.07
2018-12-16T15:51:01.306Z,112.50
2018-12-16T15:53:29.973Z,95.27
2018-12-16T15:55:58.491Z,130.67
2018-12-16T15:58:27.067Z,106.10
2018-12-16T16:00:56.071Z,116.07
2018-12-16T16:03:24.578Z,147.63
2018-12-16T16:05:53.025Z,140.33
2018-12-16T16:08:21.914Z,133.70
2018-12-16T16:10:50.513Z,167.70
2018-12-16T16:13:20.793Z,127.53
2018-12-16T16:15:49.753Z,128.10
2018-12-16T16:18:27.879Z,123.03
2018-12-16T16:20:56.227Z,132.37
2018-12-16T16:23:35.237Z,143.73
2018-12-16T16:26:16.246Z,136.07
2018-12-16T16:34:27.580Z,130.30
2018-12-16T16:36:56.170Z,126.53
2018-12-16T16:39:24.614Z,135.83
2018-12-16T16:41:53.573Z,196.00
2018-12-16T16:44:22.083Z,184.53
2018-12-16T16:46:50.535Z,182.67
2018-12-16T16:49:19.046Z,125.53
2018-12-16T16:51:47.502Z,139.80
2018-12-16T16:54:16.002Z,148.47
2018-12-16T16:56:44.354Z,138.90
2018-12-16T16:59:13.083Z,147.00
2018-12-16T17:01:41.427Z,139.50
2018-12-16T17:04:09.835Z,112.07
2018-12-16T17:06:38.701Z,133.93
2018-12-16T17:09:08.221Z,108.87
2018-12-16T17:11:36.630Z,97.10
2018-12-16T17:14:05.102Z,117.80
2018-12-16T17:16:33.488Z,115.50
2018-12-16T17:19:02.434Z,134.80
2018-12-16T17:21:31.138Z,135.93
2018-12-16T17:23:59.474Z,123.13
2018-12-16T17:26:30.257Z,113.30
2018-12-16T17:28:58.312Z,130.27
2018-12-16T17:31:26.603Z,86.27
2018-12-16T17:33:55.581Z,110.12
2018-12-16T17:36:24.078Z,113.37
2018-12-16T17:38:52.727Z,192.07
2018-12-16T17:41:21.008Z,136.60
2018-12-16T17:43:49.464Z,165.30
2018-12-16T17:46:17.823Z,114.23
2018-12-16T17:48:46.208Z,108.63
2018-12-16T17:51:14.609Z,113.80
2018-12-16T17:53:43.045Z,109.03
2018-12-16T17:56:11.509Z,95.27
2018-12-16T17:58:39.918Z,93.80
2018-12-16T18:01:08.436Z,81.10
2018-12-16T18:03:37.049Z,81.67
2018-12-16T18:06:06.758Z,84.93
2018-12-16T18:09:05.179Z,83.90
2018-12-16T18:11:34.722Z,62.50
2018-12-16T18:14:03.115Z,77.50
2018-12-16T18:16:31.416Z,76.50
2018-12-16T18:19:00.743Z,88.17
2018-12-16T18:21:29.050Z,93.67
2018-12-16T18:23:57.438Z,116.43
2018-12-16T18:26:25.750Z,104.07
2018-12-16T18:28:54.346Z,119.03
2018-12-16T18:31:22.667Z,99.80
2018-12-16T18:33:51.023Z,106.63
2018-12-16T18:36:19.375Z,95.63
2018-12-16T18:38:48.170Z,106.13
2018-12-16T18:41:16.692Z,112.57
2018-12-16T18:43:45.708Z,113.13
2018-12-16T18:46:14.487Z,107.37
2018-12-16T18:48:43.067Z,111.13
2018-12-16T18:51:11.470Z,121.67
2018-12-16T18:53:39.929Z,109.73
2018-12-16T18:56:08.296Z,122.00
2018-12-16T18:58:36.700Z,102.03
2018-12-16T19:01:05.480Z,86.37
2018-12-16T19:03:33.808Z,93.80
2018-12-16T19:06:02.201Z,81.00
2018-12-16T19:08:30.562Z,65.57
2018-12-16T19:10:59.123Z,73.57
2018-12-16T19:13:27.500Z,77.13
2018-12-16T19:15:55.931Z,63.60
2018-12-16T19:18:25.670Z,54.23
2018-12-16T19:20:54.306Z,58.27
2018-12-16T19:23:22.717Z,64.93
2018-12-16T19:25:51.173Z,62.07
2018-12-16T19:28:19.494Z,59.73
2018-12-16T19:30:48.211Z,58.10
2018-12-16T19:33:16.506Z,50.60
2018-12-16T19:35:44.976Z,55.90
2018-12-16T19:38:14.717Z,54.13
2018-12-16T19:40:43.214Z,55.07
2018-12-16T19:43:11.574Z,55.47
2018-12-16T19:45:39.915Z,57.60
2018-12-16T19:48:08.411Z,49.57
2018-12-16T19:50:47.104Z,48.37
2018-12-16T19:53:17.454Z,48.30
2018-12-16T19:55:48.668Z,50.77
2018-12-16T19:58:25.500Z,49.97
2018-12-16T20:01:17.514Z,44.33
2018-12-16T20:04:22.184Z,50.43
2018-12-16T20:06:57.052Z,46.50
2018-12-16T20:09:29.252Z,56.53
2018-12-16T20:12:13.130Z,64.07
2018-12-16T20:14:58.512Z,61.40
2018-12-16T20:17:27.274Z,62.37
2018-12-16T20:20:02.702Z,63.40
2018-12-16T20:22:37.099Z,66.33
2018-12-16T20:25:09.632Z,102.63
2018-12-16T20:27:38.505Z,76.60
2018-12-16T20:30:08.707Z,76.77
2018-12-16T20:32:37.022Z,88.73
2018-12-16T20:35:09.495Z,95.40
2018-12-16T20:37:38.590Z,88.77
2018-12-16T20:40:08.092Z,80.57
2018-12-16T20:42:36.437Z,99.90
2018-12-16T20:45:06.436Z,98.30
2018-12-16T20:47:35.090Z,105.50
2018-12-16T20:52:57.096Z,105.63
2018-12-16T20:55:25.725Z,133.13
2018-12-16T20:57:54.170Z,168.73
2018-12-16T21:00:22.599Z,117.80
2018-12-16T21:02:50.974Z,155.10
2018-12-16T21:05:19.319Z,147.03
2018-12-16T21:07:47.899Z,146.70
2018-12-16T21:10:16.337Z,129.27
2018-12-16T21:12:50.526Z,142.30
2018-12-16T21:15:24.137Z,198.60
2018-12-16T21:17:57.985Z,166.87
2018-12-16T21:20:26.605Z,134.03
2018-12-16T21:22:55.116Z,133.93
2018-12-16T21:25:23.794Z,169.03
2018-12-16T21:27:52.806Z,133.93
2018-12-16T21:30:21.158Z,134.37
2018-12-16T21:32:49.521Z,119.07
2018-12-16T21:35:18.092Z,130.40
2018-12-16T21:37:46.410Z,127.97
2018-12-16T21:40:15.074Z,126.07
2018-12-16T21:42:44.351Z,130.50
2018-12-16T21:45:12.842Z,135.23
2018-12-16T21:47:41.378Z,183.37
2018-12-16T21:50:15.173Z,170.67
2018-12-16T21:52:43.509Z,148.20
2018-12-16T21:55:11.862Z,128.40
2018-12-16T21:57:40.201Z,127.23
2018-12-16T22:00:10.035Z,132.17
2018-12-16T22:02:38.580Z,157.87
2018-12-16T22:05:08.922Z,126.23
2018-12-16T22:07:37.577Z,123.63
2018-12-16T22:10:06.286Z,113.70
2018-12-16T22:12:34.675Z,160.30
2018-12-16T22:15:03.789Z,144.43
2018-12-16T22:17:32.262Z,100.10
2018-12-16T22:20:00.623Z,110.37
2018-12-16T22:22:29.070Z,115.53
2018-12-16T22:24:57.369Z,115.97
2018-12-16T22:27:26.012Z,94.43
2018-12-16T22:29:54.379Z,95.20
2018-12-16T22:32:22.665Z,96.60
2018-12-16T22:34:51.265Z,81.80
2018-12-16T22:37:19.738Z,97.43
2018-12-16T22:39:48.106Z,103.23
2018-12-16T22:42:16.395Z,79.93
2018-12-16T22:44:44.749Z,100.27
2018-12-16T22:47:13.617Z,75.80
2018-12-16T22:49:41.970Z,97.27
2018-12-16T22:52:10.330Z,78.80
2018-12-16T22:54:38.659Z,105.23
2018-12-16T22:57:09.295Z,101.00
2018-12-16T22:59:37.598Z,88.33
2018-12-16T23:02:06.938Z,88.83
2018-12-16T23:04:38.694Z,83.47
2018-12-16T23:07:07.242Z,84.27
2018-12-16T23:09:35.674Z,93.57
2018-12-16T23:12:06.855Z,96.43
2018-12-16T23:14:35.133Z,84.67
2018-12-16T23:17:03.765Z,87.53
2018-12-16T23:19:34.384Z,91.93
2018-12-16T23:22:03.721Z,94.87
2018-12-16T23:24:32.309Z,89.97
2018-12-16T23:27:02.761Z,110.80
2018-12-16T23:29:31.242Z,95.37
2018-12-16T23:32:03.175Z,99.83
2018-12-16T23:34:35.795Z,89.50
2018-12-16T23:37:05.212Z,85.90
2018-12-16T23:39:33.692Z,86.30
2018-12-16T23:42:02.807Z,110.23
2018-12-16T23:44:32.737Z,94.10
2018-12-16T23:47:01.155Z,97.47
2018-12-16T23:49:29.504Z,93.30
2018-12-16T23:51:59.868Z,80.37
2018-12-16T23:54:28.360Z,82.27
2018-12-16T23:56:57.030Z,79.97
2018-12-16T23:59:25.346Z,77.50
